sensor_id;sensor_type;location;lat;lon;timestamp;P1;durP1;ratioP1;P2;durP2;ratioP2
22677;SDS011;26259;50.214;18.620;2022-09-17T00:01:35;26.03;;;16.50;;
22677;SDS011;26259;50.214;18.620;2022-09-17T00:04:01;24.77;;;17.00;;
22677;SDS011;26259;50.214;18.620;2022-09-17T00:06:28;28.07;;;16.63;;
22677;SDS011;26259;50.214;18.620;2022-09-17T00:08:55;24.20;;;16.57;;
22677;SDS011;26259;50.214;18.620;2022-09-17T00:11:22;24.77;;;16.93;;
22677;SDS011;26259;50.214;18.620;2022-09-17T00:13:53;21.70;;;15.77;;
22677;SDS011;26259;50.214;18.620;2022-09-17T00:16:40;22.70;;;15.50;;
22677;SDS011;26259;50.214;18.620;2022-09-17T00:19:09;28.40;;;16.90;;
22677;SDS011;26259;50.214;18.620;2022-09-17T00:21:39;24.00;;;15.67;;
22677;SDS011;26259;50.214;18.620;2022-09-17T00:24:05;23.80;;;16.60;;
22677;SDS011;26259;50.214;18.620;2022-09-17T00:26:31;27.23;;;15.93;;
22677;SDS011;26259;50.214;18.620;2022-09-17T00:28:58;21.47;;;15.57;;
22677;SDS011;26259;50.214;18.620;2022-09-17T00:31:24;23.13;;;14.20;;
22677;SDS011;26259;50.214;18.620;2022-09-17T00:33:51;21.63;;;14.40;;
22677;SDS011;26259;50.214;18.620;2022-09-17T00:36:16;19.77;;;14.13;;
22677;SDS011;26259;50.214;18.620;2022-09-17T00:38:46;29.47;;;15.27;;
22677;SDS011;26259;50.214;18.620;2022-09-17T00:41:16;25.13;;;14.30;;
22677;SDS011;26259;50.214;18.620;2022-09-17T00:49:12;22.20;;;14.27;;
22677;SDS011;26259;50.214;18.620;2022-09-17T00:54:42;19.53;;;13.13;;
22677;SDS011;26259;50.214;18.620;2022-09-17T00:57:13;22.47;;;14.50;;
22677;SDS011;26259;50.214;18.620;2022-09-17T00:59:39;24.73;;;14.63;;
22677;SDS011;26259;50.214;18.620;2022-09-17T01:02:05;21.60;;;15.07;;
22677;SDS011;26259;50.214;18.620;2022-09-17T01:04:32;19.93;;;14.73;;
22677;SDS011;26259;50.214;18.620;2022-09-17T01:12:29;23.43;;;14.37;;
22677;SDS011;26259;50.214;18.620;2022-09-17T01:17:52;20.17;;;13.47;;
22677;SDS011;26259;50.214;18.620;2022-09-17T01:26:58;19.00;;;11.97;;
22677;SDS011;26259;50.214;18.620;2022-09-17T01:32:08;18.27;;;12.47;;
22677;SDS011;26259;50.214;18.620;2022-09-17T01:34:51;17.00;;;10.90;;
22677;SDS011;26259;50.214;18.620;2022-09-17T01:37:46;18.10;;;12.03;;
22677;SDS011;26259;50.214;18.620;2022-09-17T01:40:24;15.13;;;11.77;;
22677;SDS011;26259;50.214;18.620;2022-09-17T01:43:05;17.70;;;12.53;;
22677;SDS011;26259;50.214;18.620;2022-09-17T01:45:49;16.50;;;11.50;;
22677;SDS011;26259;50.214;18.620;2022-09-17T01:48:17;20.27;;;13.93;;
22677;SDS011;26259;50.214;18.620;2022-09-17T01:50:52;20.50;;;12.73;;
22677;SDS011;26259;50.214;18.620;2022-09-17T01:53:30;20.20;;;13.37;;
22677;SDS011;26259;50.214;18.620;2022-09-17T01:56:02;20.47;;;13.27;;
22677;SDS011;26259;50.214;18.620;2022-09-17T01:58:35;24.23;;;16.03;;
22677;SDS011;26259;50.214;18.620;2022-09-17T02:01:05;24.37;;;15.90;;
22677;SDS011;26259;50.214;18.620;2022-09-17T02:03:37;28.13;;;16.60;;
22677;SDS011;26259;50.214;18.620;2022-09-17T02:08:43;26.13;;;16.83;;
22677;SDS011;26259;50.214;18.620;2022-09-17T02:11:12;26.53;;;18.20;;
22677;SDS011;26259;50.214;18.620;2022-09-17T02:13:45;23.23;;;16.87;;
22677;SDS011;26259;50.214;18.620;2022-09-17T02:16:24;24.83;;;16.03;;
22677;SDS011;26259;50.214;18.620;2022-09-17T02:24:18;26.43;;;15.17;;
22677;SDS011;26259;50.214;18.620;2022-09-17T02:26:55;25.37;;;15.67;;
22677;SDS011;26259;50.214;18.620;2022-09-17T02:29:33;21.47;;;14.60;;
22677;SDS011;26259;50.214;18.620;2022-09-17T02:32:04;22.70;;;14.53;;
22677;SDS011;26259;50.214;18.620;2022-09-17T02:34:30;23.80;;;16.27;;
22677;SDS011;26259;50.214;18.620;2022-09-17T02:36:56;22.37;;;15.63;;
22677;SDS011;26259;50.214;18.620;2022-09-17T02:39:23;26.90;;;17.17;;
22677;SDS011;26259;50.214;18.620;2022-09-17T02:41:57;27.23;;;17.87;;
22677;SDS011;26259;50.214;18.620;2022-09-17T02:44:56;28.47;;;18.03;;
22677;SDS011;26259;50.214;18.620;2022-09-17T02:50:33;36.23;;;21.20;;
22677;SDS011;26259;50.214;18.620;2022-09-17T02:53:05;32.30;;;20.20;;
22677;SDS011;26259;50.214;18.620;2022-09-17T02:58:57;30.60;;;20.77;;
22677;SDS011;26259;50.214;18.620;2022-09-17T03:01:37;26.70;;;19.50;;
22677;SDS011;26259;50.214;18.620;2022-09-17T03:04:09;29.30;;;17.03;;
22677;SDS011;26259;50.214;18.620;2022-09-17T03:06:38;28.03;;;17.17;;
22677;SDS011;26259;50.214;18.620;2022-09-17T03:09:05;28.57;;;16.33;;
22677;SDS011;26259;50.214;18.620;2022-09-17T03:11:30;24.30;;;17.97;;
22677;SDS011;26259;50.214;18.620;2022-09-17T03:13:56;27.43;;;17.80;;
22677;SDS011;26259;50.214;18.620;2022-09-17T03:16:22;25.10;;;17.50;;
22677;SDS011;26259;50.214;18.620;2022-09-17T03:18:48;30.33;;;18.50;;
22677;SDS011;26259;50.214;18.620;2022-09-17T03:21:13;34.87;;;19.33;;
22677;SDS011;26259;50.214;18.620;2022-09-17T03:23:39;32.57;;;19.50;;
22677;SDS011;26259;50.214;18.620;2022-09-17T03:26:05;26.97;;;18.03;;
22677;SDS011;26259;50.214;18.620;2022-09-17T03:28:31;27.93;;;18.33;;
22677;SDS011;26259;50.214;18.620;2022-09-17T03:30:56;33.83;;;20.40;;
22677;SDS011;26259;50.214;18.620;2022-09-17T03:33:22;32.03;;;19.00;;
22677;SDS011;26259;50.214;18.620;2022-09-17T03:35:48;29.97;;;18.70;;
22677;SDS011;26259;50.214;18.620;2022-09-17T03:38:13;27.50;;;18.90;;
22677;SDS011;26259;50.214;18.620;2022-09-17T03:40:39;26.13;;;16.90;;
22677;SDS011;26259;50.214;18.620;2022-09-17T03:43:05;30.53;;;17.10;;
22677;SDS011;26259;50.214;18.620;2022-09-17T03:45:31;31.83;;;17.67;;
22677;SDS011;26259;50.214;18.620;2022-09-17T03:47:57;29.40;;;16.40;;
22677;SDS011;26259;50.214;18.620;2022-09-17T03:50:22;28.27;;;17.73;;
22677;SDS011;26259;50.214;18.620;2022-09-17T03:52:48;32.43;;;19.27;;
22677;SDS011;26259;50.214;18.620;2022-09-17T03:55:13;36.03;;;19.50;;
22677;SDS011;26259;50.214;18.620;2022-09-17T03:57:40;35.80;;;20.27;;
22677;SDS011;26259;50.214;18.620;2022-09-17T04:00:06;30.60;;;19.63;;
22677;SDS011;26259;50.214;18.620;2022-09-17T04:02:32;30.87;;;20.40;;
22677;SDS011;26259;50.214;18.620;2022-09-17T04:04:58;30.90;;;19.10;;
22677;SDS011;26259;50.214;18.620;2022-09-17T04:07:24;27.57;;;18.37;;
22677;SDS011;26259;50.214;18.620;2022-09-17T04:09:49;25.77;;;16.83;;
22677;SDS011;26259;50.214;18.620;2022-09-17T04:12:15;31.43;;;20.63;;
22677;SDS011;26259;50.214;18.620;2022-09-17T04:14:40;35.27;;;21.47;;
22677;SDS011;26259;50.214;18.620;2022-09-17T04:17:06;36.20;;;22.60;;
22677;SDS011;26259;50.214;18.620;2022-09-17T04:19:31;43.90;;;25.77;;
22677;SDS011;26259;50.214;18.620;2022-09-17T04:21:57;37.93;;;21.40;;
22677;SDS011;26259;50.214;18.620;2022-09-17T04:24:22;38.63;;;21.00;;
22677;SDS011;26259;50.214;18.620;2022-09-17T04:26:48;28.43;;;17.53;;
22677;SDS011;26259;50.214;18.620;2022-09-17T04:29:13;33.87;;;18.33;;
22677;SDS011;26259;50.214;18.620;2022-09-17T04:31:39;30.97;;;17.30;;
22677;SDS011;26259;50.214;18.620;2022-09-17T04:34:05;32.73;;;18.43;;
22677;SDS011;26259;50.214;18.620;2022-09-17T04:36:30;33.20;;;18.57;;
22677;SDS011;26259;50.214;18.620;2022-09-17T04:38:56;28.33;;;17.27;;
22677;SDS011;26259;50.214;18.620;2022-09-17T04:41:21;30.43;;;17.87;;
22677;SDS011;26259;50.214;18.620;2022-09-17T04:43:47;29.47;;;17.50;;
22677;SDS011;26259;50.214;18.620;2022-09-17T04:46:13;30.43;;;17.00;;
22677;SDS011;26259;50.214;18.620;2022-09-17T04:48:40;30.57;;;17.30;;
22677;SDS011;26259;50.214;18.620;2022-09-17T04:51:06;26.27;;;16.03;;
22677;SDS011;26259;50.214;18.620;2022-09-17T04:53:31;26.40;;;17.00;;
22677;SDS011;26259;50.214;18.620;2022-09-17T04:55:57;27.07;;;17.20;;
22677;SDS011;26259;50.214;18.620;2022-09-17T04:58:22;37.20;;;18.90;;
22677;SDS011;26259;50.214;18.620;2022-09-17T05:00:48;36.90;;;21.00;;
22677;SDS011;26259;50.214;18.620;2022-09-17T05:03:14;35.37;;;19.63;;
22677;SDS011;26259;50.214;18.620;2022-09-17T05:05:40;31.10;;;18.67;;
22677;SDS011;26259;50.214;18.620;2022-09-17T05:08:05;28.00;;;17.73;;
22677;SDS011;26259;50.214;18.620;2022-09-17T05:10:32;26.43;;;17.67;;
22677;SDS011;26259;50.214;18.620;2022-09-17T05:12:58;28.33;;;18.47;;
22677;SDS011;26259;50.214;18.620;2022-09-17T05:15:24;27.40;;;18.70;;
22677;SDS011;26259;50.214;18.620;2022-09-17T05:17:50;36.07;;;23.43;;
22677;SDS011;26259;50.214;18.620;2022-09-17T05:20:16;38.70;;;24.67;;
22677;SDS011;26259;50.214;18.620;2022-09-17T05:22:46;42.73;;;25.77;;
22677;SDS011;26259;50.214;18.620;2022-09-17T05:25:14;41.47;;;26.03;;
22677;SDS011;26259;50.214;18.620;2022-09-17T05:27:41;40.80;;;26.73;;
22677;SDS011;26259;50.214;18.620;2022-09-17T05:30:07;39.77;;;24.33;;
22677;SDS011;26259;50.214;18.620;2022-09-17T05:32:34;34.43;;;22.57;;
22677;SDS011;26259;50.214;18.620;2022-09-17T05:35:01;32.67;;;22.17;;
22677;SDS011;26259;50.214;18.620;2022-09-17T05:37:28;29.47;;;20.37;;
22677;SDS011;26259;50.214;18.620;2022-09-17T05:39:53;25.27;;;19.57;;
22677;SDS011;26259;50.214;18.620;2022-09-17T05:42:19;24.30;;;19.20;;
22677;SDS011;26259;50.214;18.620;2022-09-17T05:44:44;25.00;;;18.40;;
22677;SDS011;26259;50.214;18.620;2022-09-17T05:47:10;21.87;;;17.60;;
22677;SDS011;26259;50.214;18.620;2022-09-17T05:49:35;31.93;;;18.80;;
22677;SDS011;26259;50.214;18.620;2022-09-17T05:52:01;20.20;;;16.43;;
22677;SDS011;26259;50.214;18.620;2022-09-17T05:54:27;27.57;;;16.77;;
22677;SDS011;26259;50.214;18.620;2022-09-17T05:56:53;22.27;;;16.40;;
22677;SDS011;26259;50.214;18.620;2022-09-17T05:59:19;22.13;;;15.13;;
22677;SDS011;26259;50.214;18.620;2022-09-17T06:01:45;19.13;;;14.77;;
22677;SDS011;26259;50.214;18.620;2022-09-17T06:04:11;19.83;;;13.27;;
22677;SDS011;26259;50.214;18.620;2022-09-17T06:06:37;14.80;;;11.03;;
22677;SDS011;26259;50.214;18.620;2022-09-17T06:09:07;13.93;;;10.83;;
22677;SDS011;26259;50.214;18.620;2022-09-17T06:11:33;14.23;;;10.50;;
22677;SDS011;26259;50.214;18.620;2022-09-17T06:13:59;12.13;;;9.77;;
22677;SDS011;26259;50.214;18.620;2022-09-17T06:16:24;12.13;;;8.43;;
22677;SDS011;26259;50.214;18.620;2022-09-17T06:18:50;10.53;;;7.90;;
22677;SDS011;26259;50.214;18.620;2022-09-17T06:21:17;8.43;;;6.97;;
22677;SDS011;26259;50.214;18.620;2022-09-17T06:23:43;9.47;;;7.67;;
22677;SDS011;26259;50.214;18.620;2022-09-17T06:26:09;7.93;;;6.83;;
22677;SDS011;26259;50.214;18.620;2022-09-17T06:28:35;9.07;;;6.97;;
22677;SDS011;26259;50.214;18.620;2022-09-17T06:31:02;8.83;;;5.87;;
22677;SDS011;26259;50.214;18.620;2022-09-17T06:33:29;6.50;;;5.77;;
22677;SDS011;26259;50.214;18.620;2022-09-17T06:35:56;8.40;;;6.40;;
22677;SDS011;26259;50.214;18.620;2022-09-17T06:38:27;11.60;;;5.07;;
22677;SDS011;26259;50.214;18.620;2022-09-17T06:40:53;5.50;;;4.90;;
22677;SDS011;26259;50.214;18.620;2022-09-17T06:43:19;5.23;;;4.73;;
22677;SDS011;26259;50.214;18.620;2022-09-17T06:48:21;6.10;;;5.03;;
22677;SDS011;26259;50.214;18.620;2022-09-17T06:50:48;8.77;;;5.20;;
22677;SDS011;26259;50.214;18.620;2022-09-17T06:53:14;7.33;;;4.37;;
22677;SDS011;26259;50.214;18.620;2022-09-17T06:55:40;5.80;;;4.23;;
22677;SDS011;26259;50.214;18.620;2022-09-17T06:58:06;6.50;;;4.40;;
22677;SDS011;26259;50.214;18.620;2022-09-17T07:00:32;4.73;;;4.10;;
22677;SDS011;26259;50.214;18.620;2022-09-17T07:02:58;5.20;;;3.80;;
22677;SDS011;26259;50.214;18.620;2022-09-17T07:05:25;7.40;;;4.10;;
22677;SDS011;26259;50.214;18.620;2022-09-17T07:07:52;7.63;;;4.40;;
22677;SDS011;26259;50.214;18.620;2022-09-17T07:10:18;7.80;;;4.80;;
22677;SDS011;26259;50.214;18.620;2022-09-17T07:12:44;15.17;;;7.40;;
22677;SDS011;26259;50.214;18.620;2022-09-17T07:15:10;10.13;;;5.80;;
22677;SDS011;26259;50.214;18.620;2022-09-17T07:17:37;9.27;;;4.90;;
22677;SDS011;26259;50.214;18.620;2022-09-17T07:20:04;9.57;;;4.23;;
22677;SDS011;26259;50.214;18.620;2022-09-17T07:22:31;5.73;;;3.30;;
22677;SDS011;26259;50.214;18.620;2022-09-17T07:24:57;6.90;;;3.10;;
22677;SDS011;26259;50.214;18.620;2022-09-17T07:27:22;4.93;;;2.50;;
22677;SDS011;26259;50.214;18.620;2022-09-17T07:29:48;7.03;;;3.50;;
22677;SDS011;26259;50.214;18.620;2022-09-17T07:32:13;3.40;;;2.70;;
22677;SDS011;26259;50.214;18.620;2022-09-17T07:34:39;6.03;;;3.10;;
22677;SDS011;26259;50.214;18.620;2022-09-17T07:37:04;3.97;;;2.57;;
22677;SDS011;26259;50.214;18.620;2022-09-17T07:39:30;4.33;;;2.77;;
22677;SDS011;26259;50.214;18.620;2022-09-17T07:41:55;5.03;;;3.00;;
22677;SDS011;26259;50.214;18.620;2022-09-17T07:44:21;2.97;;;2.67;;
22677;SDS011;26259;50.214;18.620;2022-09-17T07:46:47;17.83;;;9.47;;
22677;SDS011;26259;50.214;18.620;2022-09-17T07:49:12;16.10;;;14.37;;
22677;SDS011;26259;50.214;18.620;2022-09-17T07:51:38;5.33;;;2.40;;
22677;SDS011;26259;50.214;18.620;2022-09-17T07:54:03;8.17;;;3.10;;
22677;SDS011;26259;50.214;18.620;2022-09-17T07:56:30;7.27;;;3.17;;
22677;SDS011;26259;50.214;18.620;2022-09-17T07:58:55;5.77;;;3.07;;
22677;SDS011;26259;50.214;18.620;2022-09-17T08:01:21;5.57;;;2.97;;
22677;SDS011;26259;50.214;18.620;2022-09-17T08:03:48;10.70;;;2.97;;
22677;SDS011;26259;50.214;18.620;2022-09-17T08:06:16;11.50;;;3.87;;
22677;SDS011;26259;50.214;18.620;2022-09-17T08:08:44;12.43;;;4.60;;
22677;SDS011;26259;50.214;18.620;2022-09-17T08:11:10;4.27;;;2.90;;
22677;SDS011;26259;50.214;18.620;2022-09-17T08:13:38;13.93;;;5.53;;
22677;SDS011;26259;50.214;18.620;2022-09-17T08:16:08;4.00;;;1.80;;
22677;SDS011;26259;50.214;18.620;2022-09-17T08:18:37;5.20;;;2.33;;
22677;SDS011;26259;50.214;18.620;2022-09-17T08:21:04;5.67;;;2.80;;
22677;SDS011;26259;50.214;18.620;2022-09-17T08:23:30;2.83;;;2.30;;
22677;SDS011;26259;50.214;18.620;2022-09-17T08:25:58;6.23;;;3.70;;
22677;SDS011;26259;50.214;18.620;2022-09-17T08:28:25;2.63;;;1.80;;
22677;SDS011;26259;50.214;18.620;2022-09-17T08:30:52;5.83;;;3.43;;
22677;SDS011;26259;50.214;18.620;2022-09-17T08:33:18;3.83;;;2.43;;
22677;SDS011;26259;50.214;18.620;2022-09-17T08:35:51;4.07;;;2.27;;
22677;SDS011;26259;50.214;18.620;2022-09-17T08:38:18;6.20;;;3.17;;
22677;SDS011;26259;50.214;18.620;2022-09-17T08:40:51;1.90;;;1.70;;
22677;SDS011;26259;50.214;18.620;2022-09-17T08:43:20;4.90;;;1.63;;
22677;SDS011;26259;50.214;18.620;2022-09-17T08:45:50;3.90;;;1.70;;
22677;SDS011;26259;50.214;18.620;2022-09-17T08:48:18;10.27;;;1.83;;
22677;SDS011;26259;50.214;18.620;2022-09-17T08:50:44;4.17;;;2.00;;
22677;SDS011;26259;50.214;18.620;2022-09-17T08:55:45;12.37;;;1.80;;
22677;SDS011;26259;50.214;18.620;2022-09-17T09:01:20;3.07;;;1.73;;
22677;SDS011;26259;50.214;18.620;2022-09-17T09:04:23;5.67;;;2.37;;
22677;SDS011;26259;50.214;18.620;2022-09-17T09:09:27;3.07;;;2.03;;
22677;SDS011;26259;50.214;18.620;2022-09-17T09:12:03;2.97;;;1.87;;
22677;SDS011;26259;50.214;18.620;2022-09-17T09:14:36;4.40;;;1.90;;
22677;SDS011;26259;50.214;18.620;2022-09-17T09:17:15;3.07;;;1.47;;
22677;SDS011;26259;50.214;18.620;2022-09-17T09:19:44;4.13;;;2.60;;
22677;SDS011;26259;50.214;18.620;2022-09-17T09:25:17;2.57;;;1.83;;
22677;SDS011;26259;50.214;18.620;2022-09-17T09:27:45;4.53;;;1.80;;
22677;SDS011;26259;50.214;18.620;2022-09-17T09:30:41;3.07;;;2.00;;
22677;SDS011;26259;50.214;18.620;2022-09-17T09:33:14;3.57;;;1.40;;
22677;SDS011;26259;50.214;18.620;2022-09-17T09:35:43;2.27;;;1.40;;
22677;SDS011;26259;50.214;18.620;2022-09-17T09:38:17;3.37;;;1.63;;
22677;SDS011;26259;50.214;18.620;2022-09-17T09:41:01;2.33;;;1.90;;
22677;SDS011;26259;50.214;18.620;2022-09-17T09:43:52;2.80;;;1.40;;
22677;SDS011;26259;50.214;18.620;2022-09-17T09:49:06;2.70;;;1.70;;
22677;SDS011;26259;50.214;18.620;2022-09-17T09:51:57;2.80;;;1.60;;
22677;SDS011;26259;50.214;18.620;2022-09-17T09:57:05;4.77;;;1.70;;
22677;SDS011;26259;50.214;18.620;2022-09-17T09:59:41;3.73;;;1.60;;
22677;SDS011;26259;50.214;18.620;2022-09-17T10:02:07;1.70;;;1.40;;
22677;SDS011;26259;50.214;18.620;2022-09-17T10:04:33;4.33;;;1.50;;
22677;SDS011;26259;50.214;18.620;2022-09-17T10:07:00;4.80;;;2.73;;
22677;SDS011;26259;50.214;18.620;2022-09-17T10:09:30;4.83;;;3.00;;
22677;SDS011;26259;50.214;18.620;2022-09-17T10:14:35;4.40;;;1.87;;
22677;SDS011;26259;50.214;18.620;2022-09-17T10:17:16;4.60;;;3.40;;
22677;SDS011;26259;50.214;18.620;2022-09-17T10:19:42;5.40;;;3.53;;
22677;SDS011;26259;50.214;18.620;2022-09-17T10:22:25;1.50;;;1.30;;
22677;SDS011;26259;50.214;18.620;2022-09-17T10:24:54;4.80;;;2.83;;
22677;SDS011;26259;50.214;18.620;2022-09-17T10:27:21;8.40;;;4.80;;
22677;SDS011;26259;50.214;18.620;2022-09-17T10:29:49;8.40;;;3.87;;
22677;SDS011;26259;50.214;18.620;2022-09-17T10:32:20;9.17;;;5.87;;
22677;SDS011;26259;50.214;18.620;2022-09-17T10:35:52;4.33;;;3.67;;
22677;SDS011;26259;50.214;18.620;2022-09-17T10:37:49;7.93;;;5.33;;
22677;SDS011;26259;50.214;18.620;2022-09-17T10:42:42;10.67;;;7.27;;
22677;SDS011;26259;50.214;18.620;2022-09-17T10:45:11;9.33;;;8.33;;
22677;SDS011;26259;50.214;18.620;2022-09-17T10:47:48;4.03;;;2.00;;
22677;SDS011;26259;50.214;18.620;2022-09-17T10:50:15;6.53;;;4.40;;
22677;SDS011;26259;50.214;18.620;2022-09-17T10:52:46;3.90;;;3.00;;
22677;SDS011;26259;50.214;18.620;2022-09-17T10:55:28;3.20;;;2.37;;
22677;SDS011;26259;50.214;18.620;2022-09-17T11:06:16;7.53;;;5.17;;
22677;SDS011;26259;50.214;18.620;2022-09-17T11:08:49;8.70;;;7.50;;
22677;SDS011;26259;50.214;18.620;2022-09-17T11:13:59;4.53;;;2.70;;
22677;SDS011;26259;50.214;18.620;2022-09-17T11:16:50;7.37;;;2.90;;
22677;SDS011;26259;50.214;18.620;2022-09-17T11:19:42;2.90;;;2.60;;
22677;SDS011;26259;50.214;18.620;2022-09-17T11:27:41;3.13;;;2.50;;
22677;SDS011;26259;50.214;18.620;2022-09-17T11:30:18;4.57;;;3.20;;
22677;SDS011;26259;50.214;18.620;2022-09-17T11:35:32;3.53;;;2.80;;
22677;SDS011;26259;50.214;18.620;2022-09-17T11:38:08;3.67;;;3.33;;
22677;SDS011;26259;50.214;18.620;2022-09-17T11:40:42;17.17;;;10.93;;
22677;SDS011;26259;50.214;18.620;2022-09-17T11:43:17;19.47;;;12.67;;
22677;SDS011;26259;50.214;18.620;2022-09-17T11:45:59;8.40;;;3.70;;
22677;SDS011;26259;50.214;18.620;2022-09-17T11:49:09;7.33;;;4.70;;
22677;SDS011;26259;50.214;18.620;2022-09-17T11:51:51;17.47;;;12.97;;
22677;SDS011;26259;50.214;18.620;2022-09-17T11:54:27;6.47;;;4.73;;
22677;SDS011;26259;50.214;18.620;2022-09-17T11:57:02;5.57;;;3.40;;
22677;SDS011;26259;50.214;18.620;2022-09-17T11:59:46;9.63;;;6.03;;
22677;SDS011;26259;50.214;18.620;2022-09-17T12:02:49;10.50;;;4.93;;
22677;SDS011;26259;50.214;18.620;2022-09-17T12:05:24;6.07;;;3.20;;
22677;SDS011;26259;50.214;18.620;2022-09-17T12:07:59;17.43;;;8.67;;
22677;SDS011;26259;50.214;18.620;2022-09-17T12:10:46;7.73;;;3.70;;
22677;SDS011;26259;50.214;18.620;2022-09-17T12:16:20;4.43;;;3.13;;
22677;SDS011;26259;50.214;18.620;2022-09-17T12:18:55;3.83;;;2.47;;
22677;SDS011;26259;50.214;18.620;2022-09-17T12:21:32;9.73;;;8.47;;
22677;SDS011;26259;50.214;18.620;2022-09-17T12:27:01;10.33;;;5.37;;
22677;SDS011;26259;50.214;18.620;2022-09-17T12:55:38;5.47;;;3.47;;
22677;SDS011;26259;50.214;18.620;2022-09-17T13:01:00;4.37;;;3.47;;
22677;SDS011;26259;50.214;18.620;2022-09-17T13:03:32;4.30;;;2.17;;
22677;SDS011;26259;50.214;18.620;2022-09-17T13:06:14;3.63;;;2.77;;
22677;SDS011;26259;50.214;18.620;2022-09-17T13:14:31;3.70;;;2.80;;
22677;SDS011;26259;50.214;18.620;2022-09-17T13:17:26;4.27;;;2.93;;
22677;SDS011;26259;50.214;18.620;2022-09-17T13:20:14;3.23;;;2.40;;
22677;SDS011;26259;50.214;18.620;2022-09-17T13:22:48;4.53;;;3.30;;
22677;SDS011;26259;50.214;18.620;2022-09-17T13:25:16;2.63;;;2.10;;
22677;SDS011;26259;50.214;18.620;2022-09-17T13:27:44;21.37;;;13.30;;
22677;SDS011;26259;50.214;18.620;2022-09-17T13:30:15;38.83;;;26.07;;
22677;SDS011;26259;50.214;18.620;2022-09-17T13:32:46;7.00;;;5.10;;
22677;SDS011;26259;50.214;18.620;2022-09-17T13:37:41;8.33;;;3.37;;
22677;SDS011;26259;50.214;18.620;2022-09-17T13:40:27;7.97;;;2.87;;
22677;SDS011;26259;50.214;18.620;2022-09-17T13:43:16;4.63;;;2.70;;
22677;SDS011;26259;50.214;18.620;2022-09-17T13:48:24;7.63;;;2.30;;
22677;SDS011;26259;50.214;18.620;2022-09-17T13:50:55;11.03;;;3.80;;
22677;SDS011;26259;50.214;18.620;2022-09-17T13:53:22;5.77;;;3.50;;
22677;SDS011;26259;50.214;18.620;2022-09-17T13:55:51;5.13;;;2.33;;
22677;SDS011;26259;50.214;18.620;2022-09-17T14:00:45;4.43;;;2.30;;
22677;SDS011;26259;50.214;18.620;2022-09-17T14:05:52;7.00;;;3.00;;
22677;SDS011;26259;50.214;18.620;2022-09-17T14:19:21;6.93;;;3.10;;
22677;SDS011;26259;50.214;18.620;2022-09-17T14:24:35;3.73;;;2.80;;
22677;SDS011;26259;50.214;18.620;2022-09-17T14:35:36;5.50;;;2.43;;
22677;SDS011;26259;50.214;18.620;2022-09-17T14:38:14;4.07;;;2.37;;
22677;SDS011;26259;50.214;18.620;2022-09-17T14:40:46;4.53;;;2.77;;
22677;SDS011;26259;50.214;18.620;2022-09-17T14:46:09;20.87;;;14.20;;
22677;SDS011;26259;50.214;18.620;2022-09-17T14:48:42;11.40;;;8.20;;
22677;SDS011;26259;50.214;18.620;2022-09-17T14:51:17;7.20;;;5.30;;
22677;SDS011;26259;50.214;18.620;2022-09-17T14:56:35;3.10;;;2.80;;
22677;SDS011;26259;50.214;18.620;2022-09-17T15:02:27;8.50;;;5.80;;
22677;SDS011;26259;50.214;18.620;2022-09-17T15:04:56;31.47;;;26.13;;
22677;SDS011;26259;50.214;18.620;2022-09-17T15:07:22;4.77;;;3.67;;
22677;SDS011;26259;50.214;18.620;2022-09-17T15:09:49;3.97;;;3.40;;
22677;SDS011;26259;50.214;18.620;2022-09-17T15:12:19;10.67;;;7.80;;
22677;SDS011;26259;50.214;18.620;2022-09-17T15:14:49;4.63;;;3.57;;
22677;SDS011;26259;50.214;18.620;2022-09-17T15:17:17;4.10;;;3.03;;
22677;SDS011;26259;50.214;18.620;2022-09-17T15:20:02;3.60;;;2.47;;
22677;SDS011;26259;50.214;18.620;2022-09-17T15:22:33;3.30;;;3.00;;
22677;SDS011;26259;50.214;18.620;2022-09-17T15:25:03;9.63;;;6.80;;
22677;SDS011;26259;50.214;18.620;2022-09-17T15:27:37;7.43;;;3.07;;
22677;SDS011;26259;50.214;18.620;2022-09-17T15:30:10;6.47;;;3.77;;
22677;SDS011;26259;50.214;18.620;2022-09-17T15:32:49;6.27;;;5.57;;
22677;SDS011;26259;50.214;18.620;2022-09-17T15:35:19;4.67;;;4.20;;
22677;SDS011;26259;50.214;18.620;2022-09-17T15:37:48;4.03;;;3.20;;
22677;SDS011;26259;50.214;18.620;2022-09-17T15:42:50;4.30;;;3.83;;
22677;SDS011;26259;50.214;18.620;2022-09-17T15:47:51;3.43;;;3.13;;
22677;SDS011;26259;50.214;18.620;2022-09-17T15:52:43;6.80;;;6.10;;
22677;SDS011;26259;50.214;18.620;2022-09-17T15:57:58;7.70;;;5.20;;
22677;SDS011;26259;50.214;18.620;2022-09-17T16:00:24;9.53;;;6.30;;
22677;SDS011;26259;50.214;18.620;2022-09-17T16:02:50;6.60;;;5.17;;
22677;SDS011;26259;50.214;18.620;2022-09-17T16:07:41;4.80;;;4.30;;
22677;SDS011;26259;50.214;18.620;2022-09-17T16:10:09;19.33;;;11.40;;
22677;SDS011;26259;50.214;18.620;2022-09-17T16:12:36;52.67;;;29.10;;
22677;SDS011;26259;50.214;18.620;2022-09-17T16:15:02;13.10;;;8.77;;
22677;SDS011;26259;50.214;18.620;2022-09-17T16:17:33;12.40;;;8.40;;
22677;SDS011;26259;50.214;18.620;2022-09-17T16:20:12;78.77;;;45.93;;
22677;SDS011;26259;50.214;18.620;2022-09-17T16:22:41;26.93;;;16.87;;
22677;SDS011;26259;50.214;18.620;2022-09-17T16:25:07;13.50;;;10.20;;
22677;SDS011;26259;50.214;18.620;2022-09-17T16:27:37;23.90;;;14.50;;
22677;SDS011;26259;50.214;18.620;2022-09-17T16:30:15;15.13;;;8.77;;
22677;SDS011;26259;50.214;18.620;2022-09-17T16:32:43;15.27;;;7.17;;
22677;SDS011;26259;50.214;18.620;2022-09-17T16:35:15;8.77;;;5.27;;
22677;SDS011;26259;50.214;18.620;2022-09-17T16:37:42;9.23;;;4.70;;
22677;SDS011;26259;50.214;18.620;2022-09-17T16:40:11;6.00;;;3.97;;
22677;SDS011;26259;50.214;18.620;2022-09-17T16:42:37;5.53;;;4.17;;
22677;SDS011;26259;50.214;18.620;2022-09-17T16:45:03;6.03;;;4.57;;
22677;SDS011;26259;50.214;18.620;2022-09-17T16:47:32;10.67;;;5.77;;
22677;SDS011;26259;50.214;18.620;2022-09-17T16:50:01;12.50;;;5.47;;
22677;SDS011;26259;50.214;18.620;2022-09-17T16:52:34;6.30;;;4.57;;
22677;SDS011;26259;50.214;18.620;2022-09-17T16:55:01;7.00;;;4.40;;
22677;SDS011;26259;50.214;18.620;2022-09-17T16:57:28;4.73;;;4.33;;
22677;SDS011;26259;50.214;18.620;2022-09-17T16:59:55;6.87;;;4.57;;
22677;SDS011;26259;50.214;18.620;2022-09-17T17:02:20;5.63;;;4.33;;
22677;SDS011;26259;50.214;18.620;2022-09-17T17:04:46;6.70;;;5.23;;
22677;SDS011;26259;50.214;18.620;2022-09-17T17:07:11;6.77;;;4.77;;
22677;SDS011;26259;50.214;18.620;2022-09-17T17:09:37;8.70;;;4.83;;
22677;SDS011;26259;50.214;18.620;2022-09-17T17:12:03;6.70;;;4.73;;
22677;SDS011;26259;50.214;18.620;2022-09-17T17:14:29;6.27;;;4.50;;
22677;SDS011;26259;50.214;18.620;2022-09-17T17:16:55;7.33;;;5.00;;
22677;SDS011;26259;50.214;18.620;2022-09-17T17:19:21;9.27;;;5.50;;
22677;SDS011;26259;50.214;18.620;2022-09-17T17:21:49;11.13;;;7.57;;
22677;SDS011;26259;50.214;18.620;2022-09-17T17:24:14;11.60;;;8.10;;
22677;SDS011;26259;50.214;18.620;2022-09-17T17:26:40;11.07;;;8.33;;
22677;SDS011;26259;50.214;18.620;2022-09-17T17:29:06;17.17;;;10.80;;
22677;SDS011;26259;50.214;18.620;2022-09-17T17:31:32;12.63;;;10.67;;
22677;SDS011;26259;50.214;18.620;2022-09-17T17:33:58;16.73;;;14.27;;
22677;SDS011;26259;50.214;18.620;2022-09-17T17:36:24;16.03;;;10.87;;